Terminal Aerodrome Forecast
Issued by NWS Missoula, MT

Home | Current Version | Previous Version | Text Only | Print | Product List | Glossary On
Versions: 1 2 3 4 5 6 7 8 9 10 11 12 13 14 15 16 17 18
318
FTUS45 KMSO 292320
TAFMSO
TAF
KMSO 292320Z 3000/3024 14005KT P6SM -SHRA OVC050
     FM300200 14005KT P6SM VCSH BKN040 OVC060
     FM300900 VRB03KT P6SM -SHRA OVC050
     FM301200 31005KT 4SM -RA BR OVC030=

USA.gov is the U.S. government's official web portal to all federal, state and local government web resources and services.